sensor_id;sensor_type;location;lat;lon;timestamp;pressure;altitude;pressure_sealevel;temperature;humidity
71716;BME280;59568;52.128;5.434;2023-05-02T00:00:48;102133.16;;;10.67;83.81
71716;BME280;59568;52.128;5.434;2023-05-02T00:03:15;102122.97;;;10.65;83.63
71716;BME280;59568;52.128;5.434;2023-05-02T00:05:43;102128.72;;;10.67;83.89
71716;BME280;59568;52.128;5.434;2023-05-02T00:08:10;102119.81;;;10.68;83.99
71716;BME280;59568;52.128;5.434;2023-05-02T00:10:37;102119.03;;;10.68;83.94
71716;BME280;59568;52.128;5.434;2023-05-02T00:13:03;102130.28;;;10.68;84.08
71716;BME280;59568;52.128;5.434;2023-05-02T00:15:30;102127.13;;;10.66;84.46
71716;BME280;59568;52.128;5.434;2023-05-02T00:17:56;102123.50;;;10.67;84.22
71716;BME280;59568;52.128;5.434;2023-05-02T00:20:23;102128.72;;;10.67;84.52
71716;BME280;59568;52.128;5.434;2023-05-02T00:22:49;102127.13;;;10.66;84.30
71716;BME280;59568;52.128;5.434;2023-05-02T00:25:16;102124.50;;;10.66;83.60
71716;BME280;59568;52.128;5.434;2023-05-02T00:27:43;102127.66;;;10.68;83.95
71716;BME280;59568;52.128;5.434;2023-05-02T00:30:12;102136.31;;;10.69;84.18
71716;BME280;59568;52.128;5.434;2023-05-02T00:32:39;102137.09;;;10.69;84.16
71716;BME280;59568;52.128;5.434;2023-05-02T00:35:06;102135.00;;;10.71;83.86
71716;BME280;59568;52.128;5.434;2023-05-02T00:37:33;102133.16;;;10.67;84.36
71716;BME280;59568;52.128;5.434;2023-05-02T00:40:00;102128.72;;;10.67;84.34
71716;BME280;59568;52.128;5.434;2023-05-02T00:42:27;102137.63;;;10.71;84.37
71716;BME280;59568;52.128;5.434;2023-05-02T00:44:57;102135.00;;;10.71;84.18
71716;BME280;59568;52.128;5.434;2023-05-02T00:47:23;102130.28;;;10.68;84.28
71716;BME280;59568;52.128;5.434;2023-05-02T00:49:50;102136.56;;;10.67;84.61
71716;BME280;59568;52.128;5.434;2023-05-02T00:52:17;102150.66;;;10.66;84.80
71716;BME280;59568;52.128;5.434;2023-05-02T00:54:44;102150.94;;;10.65;85.43
71716;BME280;59568;52.128;5.434;2023-05-02T00:57:10;102149.59;;;10.62;85.86
71716;BME280;59568;52.128;5.434;2023-05-02T00:59:38;102146.97;;;10.62;85.59
71716;BME280;59568;52.128;5.434;2023-05-02T01:02:21;102159.03;;;10.63;85.94
71716;BME280;59568;52.128;5.434;2023-05-02T01:05:13;102163.72;;;10.61;86.17
71716;BME280;59568;52.128;5.434;2023-05-02T01:07:59;102167.88;;;10.62;86.23
71716;BME280;59568;52.128;5.434;2023-05-02T01:13:27;102169.19;;;10.59;87.18
71716;BME280;59568;52.128;5.434;2023-05-02T01:15:55;102166.81;;;10.58;87.17
71716;BME280;59568;52.128;5.434;2023-05-02T01:18:25;102162.09;;;10.55;87.00
71716;BME280;59568;52.128;5.434;2023-05-02T01:20:59;102168.38;;;10.54;86.96
71716;BME280;59568;52.128;5.434;2023-05-02T01:23:47;102173.56;;;10.49;87.14
71716;BME280;59568;52.128;5.434;2023-05-02T01:29:21;102182.38;;;10.37;87.32
71716;BME280;59568;52.128;5.434;2023-05-02T01:31:50;102175.28;;;10.33;86.25
71716;BME280;59568;52.128;5.434;2023-05-02T01:34:19;102182.59;;;10.31;86.36
71716;BME280;59568;52.128;5.434;2023-05-02T01:36:48;102183.03;;;10.28;85.59
71716;BME280;59568;52.128;5.434;2023-05-02T01:39:21;102187.72;;;10.26;85.09
71716;BME280;59568;52.128;5.434;2023-05-02T01:41:51;102194.25;;;10.23;85.21
71716;BME280;59568;52.128;5.434;2023-05-02T01:44:20;102191.88;;;10.22;85.31
71716;BME280;59568;52.128;5.434;2023-05-02T01:46:48;102188.50;;;10.21;85.45
71716;BME280;59568;52.128;5.434;2023-05-02T01:49:17;102199.19;;;10.19;85.33
71716;BME280;59568;52.128;5.434;2023-05-02T01:51:46;102194.75;;;10.20;85.17
71716;BME280;59568;52.128;5.434;2023-05-02T01:54:15;102211.47;;;10.19;85.32
71716;BME280;59568;52.128;5.434;2023-05-02T01:56:43;102209.09;;;10.17;85.52
71716;BME280;59568;52.128;5.434;2023-05-02T01:59:14;102224.47;;;10.14;85.22
71716;BME280;59568;52.128;5.434;2023-05-02T02:01:42;102225.44;;;10.08;85.42
71716;BME280;59568;52.128;5.434;2023-05-02T02:04:12;102219.97;;;10.04;85.05
71716;BME280;59568;52.128;5.434;2023-05-02T02:06:44;102225.44;;;10.03;84.95
71716;BME280;59568;52.128;5.434;2023-05-02T02:09:12;102223.59;;;10.03;84.81
71716;BME280;59568;52.128;5.434;2023-05-02T02:11:46;102216.00;;;10.02;84.74
71716;BME280;59568;52.128;5.434;2023-05-02T02:14:20;102226.44;;;10.02;84.59
71716;BME280;59568;52.128;5.434;2023-05-02T02:16:49;102220.13;;;9.97;84.08
71716;BME280;59568;52.128;5.434;2023-05-02T02:19:19;102219.34;;;9.97;84.29
71716;BME280;59568;52.128;5.434;2023-05-02T02:21:47;102234.25;;;9.96;84.02
71716;BME280;59568;52.128;5.434;2023-05-02T02:24:17;102233.16;;;9.92;84.20
71716;BME280;59568;52.128;5.434;2023-05-02T02:26:46;102244.16;;;9.94;84.05
71716;BME280;59568;52.128;5.434;2023-05-02T02:29:12;102249.09;;;9.96;83.89
71716;BME280;59568;52.128;5.434;2023-05-02T02:31:39;102250.38;;;9.93;83.85
71716;BME280;59568;52.128;5.434;2023-05-02T02:34:06;102258.19;;;9.88;83.82
71716;BME280;59568;52.128;5.434;2023-05-02T02:36:44;102258.66;;;9.85;83.82
71716;BME280;59568;52.128;5.434;2023-05-02T02:39:19;102263.09;;;9.85;83.37
71716;BME280;59568;52.128;5.434;2023-05-02T02:47:26;102270.09;;;9.79;82.12
71716;BME280;59568;52.128;5.434;2023-05-02T02:52:58;102271.31;;;9.71;81.59
71716;BME280;59568;52.128;5.434;2023-05-02T02:55:52;102269.44;;;9.67;81.34
71716;BME280;59568;52.128;5.434;2023-05-02T02:58:53;102271.97;;;9.62;81.39
71716;BME280;59568;52.128;5.434;2023-05-02T03:01:21;102271.41;;;9.59;81.43
71716;BME280;59568;52.128;5.434;2023-05-02T03:03:50;102278.47;;;9.59;81.24
71716;BME280;59568;52.128;5.434;2023-05-02T03:06:19;102283.69;;;9.59;81.25
71716;BME280;59568;52.128;5.434;2023-05-02T03:08:46;102273.47;;;9.57;81.22
71716;BME280;59568;52.128;5.434;2023-05-02T03:11:12;102286.28;;;9.59;81.08
71716;BME280;59568;52.128;5.434;2023-05-02T03:13:39;102289.69;;;9.59;80.68
71716;BME280;59568;52.128;5.434;2023-05-02T03:16:24;102296.75;;;9.59;81.01
71716;BME280;59568;52.128;5.434;2023-05-02T03:18:54;102298.56;;;9.58;80.95
71716;BME280;59568;52.128;5.434;2023-05-02T03:21:21;102303.53;;;9.60;81.06
71716;BME280;59568;52.128;5.434;2023-05-02T03:23:47;102301.22;;;9.64;81.18
71716;BME280;59568;52.128;5.434;2023-05-02T03:26:15;102299.13;;;9.60;81.21
71716;BME280;59568;52.128;5.434;2023-05-02T03:28:42;102298.78;;;9.57;81.35
71716;BME280;59568;52.128;5.434;2023-05-02T03:31:14;102306.09;;;9.55;81.35
71716;BME280;59568;52.128;5.434;2023-05-02T03:33:41;102310.53;;;9.54;81.40
71716;BME280;59568;52.128;5.434;2023-05-02T03:36:08;102318.81;;;9.51;81.77
71716;BME280;59568;52.128;5.434;2023-05-02T03:38:34;102316.69;;;9.48;81.61
71716;BME280;59568;52.128;5.434;2023-05-02T03:41:01;102318.25;;;9.49;81.77
71716;BME280;59568;52.128;5.434;2023-05-02T03:43:28;102319.53;;;9.47;81.98
71716;BME280;59568;52.128;5.434;2023-05-02T03:45:55;102328.16;;;9.47;81.73
71716;BME280;59568;52.128;5.434;2023-05-02T03:48:21;102328.41;;;9.46;81.96
71716;BME280;59568;52.128;5.434;2023-05-02T03:50:49;102331.25;;;9.44;81.78
71716;BME280;59568;52.128;5.434;2023-05-02T03:53:16;102328.66;;;9.44;82.04
71716;BME280;59568;52.128;5.434;2023-05-02T03:55:42;102330.72;;;9.42;81.97
71716;BME280;59568;52.128;5.434;2023-05-02T03:58:09;102335.84;;;9.37;82.63
71716;BME280;59568;52.128;5.434;2023-05-02T04:00:36;102339.97;;;9.33;82.81
71716;BME280;59568;52.128;5.434;2023-05-02T04:03:06;102338.88;;;9.29;83.14
71716;BME280;59568;52.128;5.434;2023-05-02T04:05:32;102340.38;;;9.25;83.11
71716;BME280;59568;52.128;5.434;2023-05-02T04:08:00;102347.09;;;9.20;83.37
71716;BME280;59568;52.128;5.434;2023-05-02T04:10:26;102347.56;;;9.17;83.09
71716;BME280;59568;52.128;5.434;2023-05-02T04:12:53;102356.44;;;9.16;82.86
71716;BME280;59568;52.128;5.434;2023-05-02T04:15:19;102354.06;;;9.15;82.89
71716;BME280;59568;52.128;5.434;2023-05-02T04:17:45;102356.88;;;9.13;82.78
71716;BME280;59568;52.128;5.434;2023-05-02T04:20:12;102352.72;;;9.12;82.47
71716;BME280;59568;52.128;5.434;2023-05-02T04:22:39;102364.16;;;9.11;82.42
71716;BME280;59568;52.128;5.434;2023-05-02T04:25:06;102365.44;;;9.09;82.30
71716;BME280;59568;52.128;5.434;2023-05-02T04:27:33;102365.66;;;9.07;82.05
71716;BME280;59568;52.128;5.434;2023-05-02T04:29:59;102372.69;;;9.07;81.87
71716;BME280;59568;52.128;5.434;2023-05-02T04:32:26;102380.28;;;9.08;81.33
71716;BME280;59568;52.128;5.434;2023-05-02T04:34:53;102376.91;;;9.08;81.30
71716;BME280;59568;52.128;5.434;2023-05-02T04:37:19;102383.69;;;9.09;81.40
71716;BME280;59568;52.128;5.434;2023-05-02T04:39:46;102396.72;;;9.09;81.07
71716;BME280;59568;52.128;5.434;2023-05-02T04:42:13;102405.81;;;9.06;81.20
71716;BME280;59568;52.128;5.434;2023-05-02T04:44:39;102403.59;;;8.98;80.58
71716;BME280;59568;52.128;5.434;2023-05-02T04:47:05;102409.19;;;8.90;80.48
71716;BME280;59568;52.128;5.434;2023-05-02T04:49:32;102411.72;;;8.85;80.26
71716;BME280;59568;52.128;5.434;2023-05-02T04:51:58;102412.19;;;8.82;80.16
71716;BME280;59568;52.128;5.434;2023-05-02T04:54:25;102426.00;;;8.82;80.17
71716;BME280;59568;52.128;5.434;2023-05-02T04:56:52;102426.47;;;8.79;79.76
71716;BME280;59568;52.128;5.434;2023-05-02T04:59:18;102430.66;;;8.80;79.56
71716;BME280;59568;52.128;5.434;2023-05-02T05:01:45;102434.28;;;8.79;79.52
71716;BME280;59568;52.128;5.434;2023-05-02T05:04:11;102430.66;;;8.80;79.47
71716;BME280;59568;52.128;5.434;2023-05-02T05:06:38;102431.22;;;8.82;79.04
71716;BME280;59568;52.128;5.434;2023-05-02T05:09:05;102436.22;;;8.84;78.90
71716;BME280;59568;52.128;5.434;2023-05-02T05:11:32;102452.41;;;8.86;78.59
71716;BME280;59568;52.128;5.434;2023-05-02T05:13:59;102452.97;;;8.88;78.47
71716;BME280;59568;52.128;5.434;2023-05-02T05:16:26;102458.19;;;8.88;77.80
71716;BME280;59568;52.128;5.434;2023-05-02T05:18:52;102471.22;;;8.88;77.54
71716;BME280;59568;52.128;5.434;2023-05-02T05:21:19;102461.56;;;8.88;77.43
71716;BME280;59568;52.128;5.434;2023-05-02T05:23:46;102458.97;;;8.88;77.35
71716;BME280;59568;52.128;5.434;2023-05-02T05:26:15;102470.72;;;8.91;77.43
71716;BME280;59568;52.128;5.434;2023-05-02T05:28:42;102468.13;;;8.91;77.71
71716;BME280;59568;52.128;5.434;2023-05-02T05:31:13;102473.34;;;8.91;77.41
71716;BME280;59568;52.128;5.434;2023-05-02T05:33:42;102479.34;;;8.91;77.81
71716;BME280;59568;52.128;5.434;2023-05-02T05:36:11;102479.03;;;8.88;77.24
71716;BME280;59568;52.128;5.434;2023-05-02T05:38:37;102484.63;;;8.79;76.98
71716;BME280;59568;52.128;5.434;2023-05-02T05:41:04;102490.06;;;8.78;77.16
71716;BME280;59568;52.128;5.434;2023-05-02T05:43:32;102494.94;;;8.74;77.24
71716;BME280;59568;52.128;5.434;2023-05-02T05:45:58;102492.31;;;8.74;77.31
71716;BME280;59568;52.128;5.434;2023-05-02T05:48:25;102502.53;;;8.76;76.82
71716;BME280;59568;52.128;5.434;2023-05-02T05:50:52;102513.28;;;8.79;77.17
71716;BME280;59568;52.128;5.434;2023-05-02T05:53:18;102514.41;;;8.84;77.03
71716;BME280;59568;52.128;5.434;2023-05-02T05:55:45;102519.38;;;8.85;77.30
71716;BME280;59568;52.128;5.434;2023-05-02T05:58:12;102527.53;;;8.89;77.28
71716;BME280;59568;52.128;5.434;2023-05-02T06:00:39;102528.56;;;8.88;77.13
71716;BME280;59568;52.128;5.434;2023-05-02T06:03:05;102532.84;;;8.94;77.36
71716;BME280;59568;52.128;5.434;2023-05-02T06:05:35;102541.31;;;9.01;77.18
71716;BME280;59568;52.128;5.434;2023-05-02T06:08:02;102531.91;;;9.00;76.24
71716;BME280;59568;52.128;5.434;2023-05-02T06:10:30;102540.84;;;9.04;76.17
71716;BME280;59568;52.128;5.434;2023-05-02T06:12:56;102541.50;;;9.11;76.14
71716;BME280;59568;52.128;5.434;2023-05-02T06:15:23;102553.69;;;9.23;75.87
71716;BME280;59568;52.128;5.434;2023-05-02T06:17:50;102554.38;;;9.30;75.34
71716;BME280;59568;52.128;5.434;2023-05-02T06:20:17;102559.75;;;9.40;74.80
71716;BME280;59568;52.128;5.434;2023-05-02T06:22:44;102555.88;;;9.43;74.97
71716;BME280;59568;52.128;5.434;2023-05-02T06:25:11;102562.16;;;9.58;74.57
71716;BME280;59568;52.128;5.434;2023-05-02T06:27:38;102562.31;;;9.69;73.88
71716;BME280;59568;52.128;5.434;2023-05-02T06:30:05;102577.69;;;9.82;73.28
71716;BME280;59568;52.128;5.434;2023-05-02T06:32:31;102577.19;;;9.85;72.55
71716;BME280;59568;52.128;5.434;2023-05-02T06:34:58;102571.81;;;9.75;71.73
71716;BME280;59568;52.128;5.434;2023-05-02T06:37:25;102575.13;;;9.70;72.02
71716;BME280;59568;52.128;5.434;2023-05-02T06:39:52;102582.09;;;9.82;71.86
71716;BME280;59568;52.128;5.434;2023-05-02T06:42:18;102583.53;;;9.89;71.37
71716;BME280;59568;52.128;5.434;2023-05-02T06:44:44;102588.34;;;9.80;70.34
71716;BME280;59568;52.128;5.434;2023-05-02T06:47:11;102601.31;;;9.75;70.65
71716;BME280;59568;52.128;5.434;2023-05-02T06:49:38;102596.16;;;9.64;70.64
71716;BME280;59568;52.128;5.434;2023-05-02T06:52:04;102609.03;;;9.53;70.37
71716;BME280;59568;52.128;5.434;2023-05-02T06:54:31;102614.63;;;9.45;70.89
71716;BME280;59568;52.128;5.434;2023-05-02T06:56:58;102619.63;;;9.47;71.52
71716;BME280;59568;52.128;5.434;2023-05-02T06:59:25;102615.75;;;9.49;70.67
71716;BME280;59568;52.128;5.434;2023-05-02T07:01:51;102628.22;;;9.47;71.47
71716;BME280;59568;52.128;5.434;2023-05-02T07:04:18;102628.91;;;9.54;71.23
71716;BME280;59568;52.128;5.434;2023-05-02T07:06:45;102635.78;;;9.60;71.62
71716;BME280;59568;52.128;5.434;2023-05-02T07:09:12;102636.56;;;9.61;71.25
71716;BME280;59568;52.128;5.434;2023-05-02T07:11:38;102642.03;;;9.59;71.14
71716;BME280;59568;52.128;5.434;2023-05-02T07:14:05;102643.13;;;9.64;71.65
71716;BME280;59568;52.128;5.434;2023-05-02T07:16:31;102644.03;;;9.69;71.31
71716;BME280;59568;52.128;5.434;2023-05-02T07:18:58;102639.69;;;9.75;71.52
71716;BME280;59568;52.128;5.434;2023-05-02T07:21:25;102649.03;;;9.88;71.29
71716;BME280;59568;52.128;5.434;2023-05-02T07:23:52;102648.41;;;9.97;71.18
71716;BME280;59568;52.128;5.434;2023-05-02T07:26:20;102661.69;;;9.96;69.51
71716;BME280;59568;52.128;5.434;2023-05-02T07:28:48;102667.75;;;9.96;69.60
71716;BME280;59568;52.128;5.434;2023-05-02T07:31:14;102673.59;;;10.04;68.94
71716;BME280;59568;52.128;5.434;2023-05-02T07:33:44;102669.31;;;9.97;69.59
71716;BME280;59568;52.128;5.434;2023-05-02T07:36:10;102673.91;;;9.90;69.41
71716;BME280;59568;52.128;5.434;2023-05-02T07:38:37;102678.19;;;9.96;69.60
71716;BME280;59568;52.128;5.434;2023-05-02T07:41:03;102674.13;;;10.06;68.94
71716;BME280;59568;52.128;5.434;2023-05-02T07:43:30;102674.31;;;9.99;68.95
71716;BME280;59568;52.128;5.434;2023-05-02T07:45:56;102676.13;;;9.98;68.33
71716;BME280;59568;52.128;5.434;2023-05-02T07:48:23;102681.97;;;10.06;68.13
71716;BME280;59568;52.128;5.434;2023-05-02T07:50:53;102682.63;;;10.13;68.45
71716;BME280;59568;52.128;5.434;2023-05-02T07:53:19;102683.41;;;10.13;67.59
71716;BME280;59568;52.128;5.434;2023-05-02T07:55:46;102687.69;;;10.19;67.34
71716;BME280;59568;52.128;5.434;2023-05-02T07:58:13;102684.69;;;10.28;66.96
71716;BME280;59568;52.128;5.434;2023-05-02T08:00:39;102691.84;;;10.32;67.18
71716;BME280;59568;52.128;5.434;2023-05-02T08:03:06;102695.97;;;10.45;66.26
71716;BME280;59568;52.128;5.434;2023-05-02T08:05:33;102695.09;;;10.39;66.79
71716;BME280;59568;52.128;5.434;2023-05-02T08:07:59;102699.44;;;10.51;65.82
71716;BME280;59568;52.128;5.434;2023-05-02T08:10:27;102692.78;;;10.60;66.46
71716;BME280;59568;52.128;5.434;2023-05-02T08:12:54;102697.38;;;10.53;65.31
71716;BME280;59568;52.128;5.434;2023-05-02T08:15:20;102709.34;;;10.49;65.29
71716;BME280;59568;52.128;5.434;2023-05-02T08:17:47;102706.41;;;10.45;64.99
71716;BME280;59568;52.128;5.434;2023-05-02T08:20:13;102719.09;;;10.36;65.05
71716;BME280;59568;52.128;5.434;2023-05-02T08:22:40;102717.50;;;10.35;65.15
71716;BME280;59568;52.128;5.434;2023-05-02T08:25:07;102717.88;;;10.44;65.53
71716;BME280;59568;52.128;5.434;2023-05-02T08:27:34;102721.25;;;10.56;64.79
71716;BME280;59568;52.128;5.434;2023-05-02T08:30:00;102725.19;;;10.59;63.78
71716;BME280;59568;52.128;5.434;2023-05-02T08:32:27;102729.97;;;10.84;64.63
71716;BME280;59568;52.128;5.434;2023-05-02T08:34:55;102713.53;;;11.06;64.51
71716;BME280;59568;52.128;5.434;2023-05-02T08:37:24;102721.59;;;11.21;63.42
71716;BME280;59568;52.128;5.434;2023-05-02T08:39:51;102732.09;;;11.26;61.59
71716;BME280;59568;52.128;5.434;2023-05-02T08:42:18;102733.31;;;11.40;61.51
71716;BME280;59568;52.128;5.434;2023-05-02T08:44:48;102726.69;;;11.55;60.45
71716;BME280;59568;52.128;5.434;2023-05-02T08:47:17;102741.38;;;11.56;60.14
71716;BME280;59568;52.128;5.434;2023-05-02T08:49:44;102742.09;;;11.51;59.52
71716;BME280;59568;52.128;5.434;2023-05-02T08:52:11;102744.06;;;11.39;59.68
71716;BME280;59568;52.128;5.434;2023-05-02T08:54:38;102750.50;;;11.53;59.19
71716;BME280;59568;52.128;5.434;2023-05-02T08:57:04;102752.97;;;11.87;58.60
71716;BME280;59568;52.128;5.434;2023-05-02T08:59:32;102748.44;;;12.05;58.85
71716;BME280;59568;52.128;5.434;2023-05-02T09:02:11;102753.28;;;12.18;57.77
71716;BME280;59568;52.128;5.434;2023-05-02T09:04:44;102755.22;;;12.28;58.27
71716;BME280;59568;52.128;5.434;2023-05-02T09:07:13;102752.22;;;12.19;57.13
71716;BME280;59568;52.128;5.434;2023-05-02T09:09:40;102758.09;;;12.31;57.47
71716;BME280;59568;52.128;5.434;2023-05-02T09:12:07;102761.44;;;12.54;57.00
71716;BME280;59568;52.128;5.434;2023-05-02T09:14:33;102757.91;;;12.38;54.17
71716;BME280;59568;52.128;5.434;2023-05-02T09:17:00;102760.19;;;12.29;56.29
71716;BME280;59568;52.128;5.434;2023-05-02T09:19:27;102760.16;;;12.24;55.01
71716;BME280;59568;52.128;5.434;2023-05-02T09:21:59;102763.84;;;12.28;55.18
71716;BME280;59568;52.128;5.434;2023-05-02T09:24:26;102767.41;;;12.17;53.50
71716;BME280;59568;52.128;5.434;2023-05-02T09:26:58;102759.69;;;12.05;53.03
71716;BME280;59568;52.128;5.434;2023-05-02T09:29:27;102765.78;;;12.11;53.38
71716;BME280;59568;52.128;5.434;2023-05-02T09:31:56;102771.97;;;12.27;53.85
71716;BME280;59568;52.128;5.434;2023-05-02T09:34:22;102769.88;;;12.29;51.22
71716;BME280;59568;52.128;5.434;2023-05-02T09:36:50;102773.81;;;12.31;52.52
71716;BME280;59568;52.128;5.434;2023-05-02T09:39:21;102785.16;;;12.37;52.08
71716;BME280;59568;52.128;5.434;2023-05-02T09:41:51;102783.78;;;12.29;51.63
71716;BME280;59568;52.128;5.434;2023-05-02T09:44:20;102790.38;;;12.64;51.20
71716;BME280;59568;52.128;5.434;2023-05-02T09:46:49;102793.28;;;12.68;50.52
71716;BME280;59568;52.128;5.434;2023-05-02T09:49:16;102803.25;;;13.08;49.00
71716;BME280;59568;52.128;5.434;2023-05-02T09:51:47;102789.31;;;13.03;49.88
71716;BME280;59568;52.128;5.434;2023-05-02T09:54:35;102794.94;;;13.27;50.69
71716;BME280;59568;52.128;5.434;2023-05-02T09:57:02;102798.75;;;13.51;49.10
71716;BME280;59568;52.128;5.434;2023-05-02T09:59:29;102792.22;;;13.06;48.82
71716;BME280;59568;52.128;5.434;2023-05-02T10:02:01;102793.78;;;13.02;48.81
71716;BME280;59568;52.128;5.434;2023-05-02T10:04:30;102796.75;;;13.16;50.60
71716;BME280;59568;52.128;5.434;2023-05-02T10:06:57;102788.78;;;13.53;49.36
71716;BME280;59568;52.128;5.434;2023-05-02T10:09:25;102795.63;;;13.54;47.84
71716;BME280;59568;52.128;5.434;2023-05-02T10:11:54;102792.03;;;13.86;49.70
71716;BME280;59568;52.128;5.434;2023-05-02T10:14:23;102794.22;;;14.46;47.93
71716;BME280;59568;52.128;5.434;2023-05-02T10:16:58;102796.59;;;14.27;46.15
71716;BME280;59568;52.128;5.434;2023-05-02T10:19:38;102806.25;;;13.95;48.01
71716;BME280;59568;52.128;5.434;2023-05-02T10:22:07;102806.53;;;14.09;46.18
71716;BME280;59568;52.128;5.434;2023-05-02T10:24:34;102813.97;;;13.49;46.64
71716;BME280;59568;52.128;5.434;2023-05-02T10:27:03;102809.34;;;13.67;47.78
71716;BME280;59568;52.128;5.434;2023-05-02T10:29:30;102809.94;;;14.10;47.61
71716;BME280;59568;52.128;5.434;2023-05-02T10:31:59;102819.19;;;14.33;45.47
71716;BME280;59568;52.128;5.434;2023-05-02T10:34:26;102823.94;;;14.51;46.61
71716;BME280;59568;52.128;5.434;2023-05-02T10:36:56;102827.41;;;14.67;45.13
71716;BME280;59568;52.128;5.434;2023-05-02T10:39:27;102828.69;;;14.95;47.03
71716;BME280;59568;52.128;5.434;2023-05-02T10:41:55;102831.72;;;15.38;45.30
71716;BME280;59568;52.128;5.434;2023-05-02T10:44:31;102825.97;;;15.21;44.23
71716;BME280;59568;52.128;5.434;2023-05-02T10:46:59;102828.34;;;15.28;46.14
71716;BME280;59568;52.128;5.434;2023-05-02T10:49:26;102829.13;;;15.33;44.60
71716;BME280;59568;52.128;5.434;2023-05-02T10:51:55;102823.06;;;15.28;45.64
71716;BME280;59568;52.128;5.434;2023-05-02T10:54:22;102827.38;;;15.78;46.90
71716;BME280;59568;52.128;5.434;2023-05-02T10:59:34;102833.72;;;15.72;45.16
71716;BME280;59568;52.128;5.434;2023-05-02T11:02:01;102842.03;;;15.25;44.15
71716;BME280;59568;52.128;5.434;2023-05-02T11:05:04;102833.66;;;15.07;44.39
71716;BME280;59568;52.128;5.434;2023-05-02T11:07:36;102831.72;;;15.38;44.38
71716;BME280;59568;52.128;5.434;2023-05-02T11:12:48;102840.81;;;15.72;42.54
71716;BME280;59568;52.128;5.434;2023-05-02T11:18:05;102842.59;;;15.11;43.98
71716;BME280;59568;52.128;5.434;2023-05-02T11:20:42;102840.22;;;14.38;44.44
71716;BME280;59568;52.128;5.434;2023-05-02T11:25:49;102847.56;;;14.15;45.55
71716;BME280;59568;52.128;5.434;2023-05-02T11:28:44;102846.34;;;14.59;46.84
71716;BME280;59568;52.128;5.434;2023-05-02T11:34:02;102852.44;;;15.61;45.29
71716;BME280;59568;52.128;5.434;2023-05-02T11:36:30;102850.13;;;16.09;45.36
71716;BME280;59568;52.128;5.434;2023-05-02T11:39:03;102850.00;;;16.64;42.00
71716;BME280;59568;52.128;5.434;2023-05-02T11:41:40;102850.47;;;16.71;41.69
71716;BME280;59568;52.128;5.434;2023-05-02T11:44:07;102846.91;;;16.22;42.06
71716;BME280;59568;52.128;5.434;2023-05-02T11:46:38;102845.16;;;16.42;43.03
71716;BME280;59568;52.128;5.434;2023-05-02T11:49:06;102848.00;;;16.85;41.16
71716;BME280;59568;52.128;5.434;2023-05-02T11:51:40;102844.34;;;16.75;43.52
71716;BME280;59568;52.128;5.434;2023-05-02T11:54:06;102851.69;;;16.84;41.52
71716;BME280;59568;52.128;5.434;2023-05-02T11:56:33;102859.06;;;16.18;41.67
71716;BME280;59568;52.128;5.434;2023-05-02T11:59:01;102869.28;;;15.75;43.20
71716;BME280;59568;52.128;5.434;2023-05-02T12:01:29;102862.50;;;15.53;42.28
71716;BME280;59568;52.128;5.434;2023-05-02T12:04:01;102865.69;;;15.40;43.22
71716;BME280;59568;52.128;5.434;2023-05-02T12:06:28;102874.34;;;15.56;42.34
71716;BME280;59568;52.128;5.434;2023-05-02T12:09:06;102866.69;;;15.54;43.21
71716;BME280;59568;52.128;5.434;2023-05-02T12:11:33;102876.16;;;15.76;44.08
71716;BME280;59568;52.128;5.434;2023-05-02T12:14:01;102878.44;;;15.93;43.63
71716;BME280;59568;52.128;5.434;2023-05-02T12:16:27;102889.88;;;15.63;43.05
71716;BME280;59568;52.128;5.434;2023-05-02T12:18:54;102885.69;;;15.41;43.83
71716;BME280;59568;52.128;5.434;2023-05-02T12:21:23;102890.72;;;15.43;44.33
71716;BME280;59568;52.128;5.434;2023-05-02T12:23:51;102902.03;;;15.53;44.97
71716;BME280;59568;52.128;5.434;2023-05-02T12:26:21;102892.53;;;15.47;41.55
71716;BME280;59568;52.128;5.434;2023-05-02T12:28:51;102892.34;;;15.28;43.47
71716;BME280;59568;52.128;5.434;2023-05-02T12:31:21;102894.91;;;15.49;43.80
71716;BME280;59568;52.128;5.434;2023-05-02T12:33:48;102888.63;;;15.40;43.45
71716;BME280;59568;52.128;5.434;2023-05-02T12:36:17;102901.00;;;15.39;42.72
71716;BME280;59568;52.128;5.434;2023-05-02T12:38:52;102909.97;;;15.38;41.85
71716;BME280;59568;52.128;5.434;2023-05-02T12:41:38;102902.63;;;15.20;43.06
71716;BME280;59568;52.128;5.434;2023-05-02T12:44:08;102915.72;;;15.45;43.17
71716;BME280;59568;52.128;5.434;2023-05-02T12:46:35;102911.28;;;15.35;43.68
71716;BME280;59568;52.128;5.434;2023-05-02T12:49:02;102917.88;;;15.23;42.10
71716;BME280;59568;52.128;5.434;2023-05-02T12:51:31;102917.34;;;15.36;43.27
71716;BME280;59568;52.128;5.434;2023-05-02T12:53:58;102919.34;;;15.80;42.06
71716;BME280;59568;52.128;5.434;2023-05-02T12:56:25;102921.81;;;15.46;41.47
71716;BME280;59568;52.128;5.434;2023-05-02T12:58:59;102913.16;;;14.78;42.38
71716;BME280;59568;52.128;5.434;2023-05-02T13:01:29;102911.25;;;14.33;43.08
71716;BME280;59568;52.128;5.434;2023-05-02T13:03:57;102913.69;;;14.91;44.62
71716;BME280;59568;52.128;5.434;2023-05-02T13:06:24;102921.03;;;15.25;43.13
71716;BME280;59568;52.128;5.434;2023-05-02T13:08:51;102922.63;;;15.26;43.07
71716;BME280;59568;52.128;5.434;2023-05-02T13:11:18;102909.66;;;15.55;43.98
71716;BME280;59568;52.128;5.434;2023-05-02T13:13:45;102916.56;;;15.35;42.95
71716;BME280;59568;52.128;5.434;2023-05-02T13:16:12;102912.59;;;15.33;43.43
71716;BME280;59568;52.128;5.434;2023-05-02T13:18:39;102917.38;;;15.00;42.59
71716;BME280;59568;52.128;5.434;2023-05-02T13:21:05;102917.38;;;14.95;42.54
71716;BME280;59568;52.128;5.434;2023-05-02T13:23:32;102928.97;;;14.99;42.10
71716;BME280;59568;52.128;5.434;2023-05-02T13:25:58;102920.28;;;14.93;42.98
71716;BME280;59568;52.128;5.434;2023-05-02T13:28:25;102922.66;;;15.05;42.89
71716;BME280;59568;52.128;5.434;2023-05-02T13:30:52;102921.03;;;15.35;43.73